»·PEaware :: AAL455 KSJC-KSAN

AAL455 :: KSJC-KSAN

FLIGHT INFORMATION

Flight Status: Arrived
Operator:
American Airlines
More flights by this operator :: More flights under this callsign
Pilot: Charles S. (11412)
Aircraft: BOEING 757-300
(B753)
More flights by this aircraft type
Origin: KSJC Mineta San Jose Intl
United States
Destination: KSAN San Diego Intl-Lindbergh
United States
More flights between these airports :: More routes between these airports
Route: +TECKY3 EBAYE AVE FIM J1 LAX COMIX1
File this flight plan on PilotEdge
Remarks:
Altitude:
(Current/Filed)
33,000ft
Speed:
(Current/Filed)
115kts
Departed: 06-Jan-18 05:43 PM
Arrived: 06-Jan-18 06:52 PM
Distance/Time
Traveled:
362nm/1:08
Distance/Time
To Go:
Arrived

Flight Plot

Page will automatically refresh every two minutes.

Flight plan parsing failed; only flown route is shown


Map Options




Map Legend


Flown Route
Filed Route
Departure Airport
Arrival Airport
Navaid (VOR, NDB)
Fix

Horizontal Profiles

Position Reports

Time Latitude Longitude Heading Altitude Ground
Speed
06-Jan-18 17:34 37.369424 -121.930498 45 45ft 0kts
06-Jan-18 17:35 37.369424 -121.930498 45 45ft 0kts
06-Jan-18 17:36 37.369424 -121.930498 45 45ft 0kts
06-Jan-18 17:37 37.369424 -121.930498 45 45ft 0kts
06-Jan-18 17:38 37.369424 -121.930498 45 45ft 0kts
06-Jan-18 17:39 37.369424 -121.930498 45 45ft 0kts
06-Jan-18 17:40 37.369424 -121.930498 45 45ft 0kts
06-Jan-18 17:41 37.369424 -121.930498 45 45ft 0kts
06-Jan-18 17:42 37.369424 -121.930498 45 45ft 0kts
06-Jan-18 17:43 37.369424 -121.930498 45 45ft 0kts
06-Jan-18 17:44 37.369424 -121.930498 45 45ft 0kts
06-Jan-18 17:45 37.369424 -121.930498 45 45ft 0kts
06-Jan-18 17:46 37.369297 -121.930662 53 46ft 3kts
06-Jan-18 17:47 37.369211 -121.931288 125 46ft 0kts
06-Jan-18 17:48 37.366861 -121.929242 215 51ft 10kts
06-Jan-18 17:49 37.358781 -121.920773 140 60ft 47kts
06-Jan-18 17:50 37.353647 -121.915133 138 67ft 0kts
06-Jan-18 17:51 37.353698 -121.916827 317 67ft 40kts
06-Jan-18 17:52 37.381967 -121.948027 314 1299ft 189kts
06-Jan-18 17:53 37.431223 -121.966147 36 4257ft 247kts
06-Jan-18 17:54 37.428098 -121.879514 143 5877ft 309kts
06-Jan-18 17:55 37.361955 -121.827799 138 7725ft 293kts
06-Jan-18 17:56 37.300747 -121.757440 138 9660ft 305kts
06-Jan-18 17:57 37.237128 -121.685407 139 11660ft 317kts
06-Jan-18 17:58 37.169957 -121.609410 139 13695ft 355kts
06-Jan-18 17:59 37.092105 -121.521395 139 15739ft 389kts
06-Jan-18 18:00 37.009003 -121.430983 143 17773ft 404kts
06-Jan-18 18:01 36.928380 -121.344937 146 19674ft 416kts
06-Jan-18 18:02 36.855826 -121.267836 146 21285ft 426kts
06-Jan-18 18:03 36.748795 -121.155184 148 23597ft 440kts
06-Jan-18 18:04 36.669771 -121.072500 149 25259ft 452kts
06-Jan-18 18:05 36.558710 -120.955820 151 27541ft 467kts
06-Jan-18 18:06 36.475191 -120.870822 152 29212ft 475kts
06-Jan-18 18:07 36.372002 -120.767596 153 31235ft 484kts
06-Jan-18 18:08 36.255747 -120.650519 154 33209ft 496kts
06-Jan-18 18:09 36.165882 -120.560107 153 33201ft 504kts
06-Jan-18 18:10 36.057390 -120.450560 153 33203ft 511kts
06-Jan-18 18:11 35.949161 -120.341598 154 33202ft 509kts
06-Jan-18 18:12 35.842178 -120.227203 146 33196ft 522kts
06-Jan-18 18:13 35.724432 -120.077923 146 33199ft 521kts
06-Jan-18 18:14 35.640815 -119.972016 150 33184ft 515kts
06-Jan-18 18:15 35.528840 -119.875411 159 33199ft 498kts
06-Jan-18 18:16 35.415068 -119.778639 158 33203ft 499kts
06-Jan-18 18:17 35.301995 -119.681667 158 33197ft 501kts
06-Jan-18 18:18 35.191049 -119.586633 158 33201ft 495kts
06-Jan-18 18:19 35.077133 -119.489477 157 33201ft 504kts
06-Jan-18 18:20 34.963404 -119.392563 156 33188ft 496kts
06-Jan-18 18:21 34.851824 -119.298970 155 33179ft 486kts
06-Jan-18 18:22 34.743259 -119.207261 155 33161ft 488kts
06-Jan-18 18:23 34.632712 -119.113240 155 33154ft 486kts
06-Jan-18 18:24 34.522313 -119.021728 156 33155ft 485kts
06-Jan-18 18:25 34.410976 -118.929918 155 33155ft 493kts
06-Jan-18 18:26 34.302486 -118.825978 146 33154ft 510kts
06-Jan-18 18:27 34.198116 -118.713978 147 33157ft 508kts
06-Jan-18 18:28 34.092784 -118.601834 147 33164ft 509kts
06-Jan-18 18:29 33.987813 -118.490654 147 33167ft 507kts
06-Jan-18 18:30 33.889530 -118.376978 141 33170ft 470kts
06-Jan-18 18:31 33.805066 -118.267628 142 33154ft 464kts
06-Jan-18 18:32 33.717918 -118.153917 140 30478ft 471kts
06-Jan-18 18:33 33.631857 -118.040819 140 27811ft 451kts
06-Jan-18 18:34 33.549054 -117.932693 141 25656ft 436kts
06-Jan-18 18:35 33.463940 -117.833859 143 23559ft 420kts
06-Jan-18 18:36 33.382721 -117.736344 140 21552ft 408kts
06-Jan-18 18:37 33.304746 -117.641439 140 19597ft 396kts
06-Jan-18 18:38 33.224266 -117.557627 150 17716ft 377kts
06-Jan-18 18:39 33.140066 -117.487019 150 15922ft 366kts
06-Jan-18 18:40 33.057710 -117.418757 148 14064ft 355kts
06-Jan-18 18:41 32.977472 -117.352499 150 12293ft 344kts
06-Jan-18 18:42 32.901416 -117.289507 146 10670ft 334kts
06-Jan-18 18:43 32.830609 -117.228823 147 10226ft 294kts
06-Jan-18 18:44 32.795504 -117.143538 105 8666ft 290kts
06-Jan-18 18:45 32.773275 -117.052807 115 7268ft 282kts
06-Jan-18 18:46 32.738104 -116.971351 124 5982ft 275kts
06-Jan-18 18:47 32.704404 -116.891030 112 4968ft 267kts
06-Jan-18 18:48 32.675057 -116.820706 148 4961ft 223kts
06-Jan-18 18:49 32.635103 -116.845800 276 4961ft 184kts
06-Jan-18 18:50 32.657671 -116.899924 291 4748ft 177kts
06-Jan-18 18:51 32.674355 -116.953112 287 4196ft 173kts
06-Jan-18 18:52 32.687455 -117.002473 286 3310ft 148kts
06-Jan-18 18:53 32.699104 -117.049017 286 2532ft 146kts
06-Jan-18 18:54 32.709014 -117.089307 286 1842ft 126kts
06-Jan-18 18:55 32.715921 -117.117497 286 1383ft 124kts
06-Jan-18 18:56 32.723757 -117.149559 286 631ft 122kts
06-Jan-18 18:57 32.732913 -117.187117 287 27ft 110kts
06-Jan-18 18:58 32.734693 -117.199485 204 21ft 6kts
06-Jan-18 18:59 32.733418 -117.200706 264 21ft 0kts

Navigation Log

Ident Type
Flight plan parsing failed, navigation log unavailable